This is the latest recevied weather packets stored in our database for station/object AD0YN. If no packets are shown the sender has not sent any weather packets the latest 1 day(s).
| Time | Temp. | Humidity | Pressure | Rain* | Wind** | Luminosity | Snow |
|---|---|---|---|---|---|---|---|
| 1778028478 | 11.67° C | 75% | 1011 hPa | 0 mm | 0.45 m/s, 237° | 12 W/m² | - |
| 1778028177 | 11.67° C | 74% | 1010.9 hPa | 0 mm | 0.89 m/s, 232° | 15 W/m² | - |
| 1778027872 | 11.67° C | 73% | 1010.9 hPa | 0 mm | 1.34 m/s, 258° | 15 W/m² | - |
| 1778027569 | 11.67° C | 72% | 1010.5 hPa | 0 mm | 0.45 m/s, 224° | 27 W/m² | - |
| 1778027265 | 11.67° C | 72% | 1010.7 hPa | 0 mm | 1.34 m/s, 234° | 23 W/m² | - |
| 1778026961 | 11.67° C | 72% | 1011 hPa | 0 mm | 0.89 m/s, 243° | 24 W/m² | - |
| 1778026657 | 11.67° C | 72% | 1010.7 hPa | 0 mm | 0.45 m/s, 227° | 27 W/m² | - |
| 1778026355 | 11.67° C | 73% | 1010.9 hPa | 0 mm | 0.45 m/s, 232° | 52 W/m² | - |
| 1778026051 | 11.67° C | 72% | 1011.1 hPa | 0 mm | 0 m/s | 49 W/m² | - |
| 1778025749 | 11.67° C | 72% | 1011.1 hPa | 0 mm | 0.45 m/s, 234° | 40 W/m² | - |
| 1778025446 | 11.67° C | 71% | 1011.1 hPa | 0 mm | 0.45 m/s, 237° | 42 W/m² | - |
| 1778025144 | 11.67° C | 72% | 1011.2 hPa | 0 mm | 0.45 m/s, 247° | 31 W/m² | - |
| 1778024840 | 11.67° C | 69% | 1011.2 hPa | 0 mm | 1.34 m/s, 243° | 32 W/m² | - |
| 1778024538 | 11.67° C | 71% | 1011.2 hPa | 0 mm | 0.89 m/s, 234° | 42 W/m² | - |
| 1778024234 | 11.67° C | 71% | 1010.9 hPa | 0 mm | 0.45 m/s, 224° | 54 W/m² | - |
| 1778023932 | 11.67° C | 68% | 1010.9 hPa | 0 mm | 1.34 m/s, 253° | 35 W/m² | - |
| 1778023629 | 12.22° C | 71% | 1011 hPa | 0 mm | 0 m/s | 32 W/m² | - |
| 1778023327 | 12.22° C | 71% | 1011 hPa | 0 mm | 0 m/s | 46 W/m² | - |
| 1778023023 | 12.22° C | 68% | 1011 hPa | 0 mm | 0 m/s | 54 W/m² | - |
| 1778022722 | 12.22° C | 70% | 1011.1 hPa | 0 mm | 0 m/s | 53 W/m² | - |
| 1778022420 | 12.22° C | 65% | 1011.1 hPa | 0 mm | 0.45 m/s, 223° | 83 W/m² | - |
| 1778022116 | 12.22° C | 67% | 1011.1 hPa | 0 mm | 0 m/s | 68 W/m² | - |
| 1778021812 | 12.22° C | 63% | 1011 hPa | 0 mm | 0 m/s | 44 W/m² | - |
| 1778021509 | 12.22° C | 64% | 1010.9 hPa | 0 mm | 0 m/s | 53 W/m² | - |
| 1778021205 | 12.22° C | 64% | 1010.8 hPa | 0 mm | 0 m/s | 80 W/m² | - |
* Rain latest hour (hover to see other rain measurements)
** Current wind speed in m/s (hover to see current wind gust speed)